createdAt,value
2023-02-13T00:03:11.749Z,103398.38
2023-02-13T00:08:26.663Z,103397.59
2023-02-13T00:13:41.727Z,103392.19
2023-02-13T00:18:56.683Z,103392.50
2023-02-13T00:24:11.720Z,103386.94
2023-02-13T00:29:26.711Z,103382.63
2023-02-13T00:34:41.660Z,103369.47
2023-02-13T00:39:57.073Z,103373.81
2023-02-13T00:45:13.044Z,103382.63
2023-02-13T00:50:28.705Z,103372.25
2023-02-13T00:55:45.070Z,103380.59
2023-02-13T01:01:00.735Z,103364.03
2023-02-13T01:06:16.674Z,103368.72
2023-02-13T01:11:32.122Z,103368.72
2023-02-13T01:16:48.002Z,103375.03
2023-02-13T01:22:04.057Z,103382.63
2023-02-13T01:27:19.751Z,103371.03
2023-02-13T01:32:34.670Z,103375.81
2023-02-13T01:37:49.699Z,103365.47
2023-02-13T01:43:05.706Z,103361.13
2023-02-13T01:48:20.964Z,103366.69
2023-02-13T01:53:36.734Z,103357.59
2023-02-13T01:58:52.709Z,103359.13
2023-02-13T02:04:07.717Z,103359.13
2023-02-13T02:09:22.820Z,103348.78
2023-02-13T02:14:37.710Z,103346.47
2023-02-13T02:19:52.733Z,103339.34
2023-02-13T02:25:09.661Z,103339.78
2023-02-13T02:30:24.739Z,103343.78
2023-02-13T02:35:40.004Z,103339.00
2023-02-13T02:40:55.935Z,103334.22
2023-02-13T02:46:14.539Z,103330.66
2023-02-13T02:51:29.771Z,103337.47
2023-02-13T02:56:44.732Z,103339.47
2023-02-13T03:02:00.046Z,103326.34
2023-02-13T03:07:15.734Z,103336.22
2023-02-13T03:12:30.752Z,103331.44
2023-02-13T03:17:45.719Z,103335.00
2023-02-13T03:23:00.782Z,103336.56
2023-02-13T03:28:15.835Z,103338.13
2023-02-13T03:33:30.759Z,103338.13
2023-02-13T03:38:45.768Z,103341.66
2023-02-13T03:44:01.047Z,103346.47
2023-02-13T03:49:16.719Z,103344.91
2023-02-13T03:54:31.676Z,103346.47
2023-02-13T03:59:46.729Z,103344.44
2023-02-13T04:05:01.727Z,103346.47
2023-02-13T04:10:17.487Z,103345.69
2023-02-13T04:15:33.045Z,103342.91
2023-02-13T04:20:48.690Z,103332.22
2023-02-13T04:26:03.772Z,103345.06
2023-02-13T04:31:18.732Z,103342.50
2023-02-13T04:36:33.681Z,103343.78
2023-02-13T04:41:48.745Z,103341.47
2023-02-13T04:47:04.700Z,103341.94
2023-02-13T04:52:19.969Z,103334.53
2023-02-13T04:57:35.741Z,103336.63
2023-02-13T05:02:51.013Z,103335.53
2023-02-13T05:08:06.668Z,103322.53
2023-02-13T05:13:21.708Z,103321.44
2023-02-13T05:18:36.674Z,103319.53
2023-02-13T05:23:51.739Z,103323.25
2023-02-13T05:29:06.695Z,103315.34
2023-02-13T05:34:21.680Z,103308.66
2023-02-13T05:39:36.741Z,103306.81
2023-02-13T05:44:51.810Z,103305.25
2023-02-13T05:50:06.775Z,103296.56
2023-02-13T05:55:22.079Z,103305.06
2023-02-13T06:00:37.786Z,103304.75
2023-02-13T06:05:52.726Z,103308.75
2023-02-13T06:11:07.766Z,103300.81
2023-02-13T06:16:22.555Z,103303.31
2023-02-13T06:21:37.754Z,103312.88
2023-02-13T06:26:52.718Z,103306.22
2023-02-13T06:32:07.727Z,103303.44
2023-02-13T06:37:22.478Z,103309.44
2023-02-13T06:42:37.757Z,103321.75
2023-02-13T06:47:52.693Z,103323.78
2023-02-13T06:53:07.815Z,103327.03
2023-02-13T06:58:23.012Z,103331.03
2023-02-13T07:03:38.712Z,103331.50
2023-02-13T07:08:54.049Z,103340.25
2023-02-13T07:14:09.785Z,103344.59
2023-02-13T07:19:24.506Z,103342.69
2023-02-13T07:24:39.690Z,103339.91
2023-02-13T07:29:54.803Z,103345.94
2023-02-13T07:35:09.984Z,103345.19
2023-02-13T07:40:25.738Z,103353.94
2023-02-13T07:45:41.056Z,103357.94
2023-02-13T07:50:56.969Z,103359.19
2023-02-13T07:56:12.763Z,103360.41
2023-02-13T08:01:27.863Z,103356.06
2023-02-13T08:06:42.874Z,103347.72
2023-02-13T08:11:57.754Z,103354.06
2023-02-13T08:17:12.771Z,103351.72
2023-02-13T08:22:27.705Z,103358.53
2023-02-13T08:27:43.082Z,103358.94
2023-02-13T08:32:58.783Z,103360.94
2023-02-13T08:38:13.768Z,103371.28
2023-02-13T08:43:28.718Z,103372.53
2023-02-13T08:48:43.763Z,103371.75
2023-02-13T08:53:58.703Z,103370.97
2023-02-13T08:59:13.776Z,103378.53
2023-02-13T09:04:28.710Z,103383.31
2023-02-13T09:09:44.034Z,103371.91
2023-02-13T09:14:59.755Z,103367.09
2023-02-13T09:20:14.755Z,103369.13
2023-02-13T09:25:29.523Z,103371.91
2023-02-13T09:30:45.188Z,103367.53
2023-02-13T09:36:01.094Z,103372.31
2023-02-13T09:41:17.428Z,103371.09
2023-02-13T09:46:32.833Z,103369.53
2023-02-13T09:51:47.778Z,103368.09
2023-02-13T09:57:02.796Z,103379.09
2023-02-13T10:02:17.759Z,103371.53
2023-02-13T10:07:32.763Z,103372.75
2023-02-13T10:12:47.826Z,103368.75
2023-02-13T10:18:02.774Z,103365.97
2023-02-13T10:23:17.722Z,103369.53
2023-02-13T10:28:32.814Z,103374.31
2023-02-13T10:33:47.763Z,103369.53
2023-02-13T10:39:02.781Z,103378.66
2023-02-13T10:44:18.042Z,103374.69
2023-02-13T10:49:33.729Z,103360.78
2023-02-13T10:54:49.129Z,103358.00
2023-02-13T11:00:04.767Z,103355.22
2023-02-13T11:05:19.480Z,103351.19
2023-02-13T11:10:34.794Z,103343.63
2023-02-13T11:15:50.079Z,103337.31
2023-02-13T11:21:05.724Z,103336.09
2023-02-13T11:26:21.063Z,103330.53
2023-02-13T11:31:36.882Z,103323.75
2023-02-13T11:36:52.775Z,103327.31
2023-02-13T11:42:07.867Z,103317.72
2023-02-13T11:47:22.818Z,103316.19
2023-02-13T11:52:37.545Z,103309.38
2023-02-13T11:57:53.107Z,103313.72
2023-02-13T12:03:08.845Z,103306.59
2023-02-13T12:08:23.753Z,103296.28
2023-02-13T12:13:38.784Z,103296.28
2023-02-13T12:18:53.836Z,103298.59
2023-02-13T12:24:08.754Z,103290.25
2023-02-13T12:29:23.808Z,103284.28
2023-02-13T12:34:38.766Z,103278.75
2023-02-13T12:39:53.810Z,103268.38
2023-02-13T12:45:09.095Z,103283.81
2023-02-13T12:50:25.109Z,103271.47
2023-02-13T12:55:40.765Z,103261.16
2023-02-13T13:00:55.927Z,103255.59
2023-02-13T13:06:12.517Z,103250.81
2023-02-13T13:11:27.741Z,103248.81
2023-02-13T13:16:42.816Z,103236.44
2023-02-13T13:21:59.027Z,103235.25
2023-02-13T13:27:14.525Z,103226.09
2023-02-13T13:32:29.730Z,103224.91
2023-02-13T13:37:44.770Z,103215.34
2023-02-13T13:42:59.849Z,103209.31
2023-02-13T13:48:15.080Z,103204.53
2023-02-13T13:53:30.490Z,103196.19
2023-02-13T13:58:45.562Z,103203.75
2023-02-13T14:04:00.783Z,103199.75
2023-02-13T14:09:17.202Z,103192.97
2023-02-13T14:14:32.809Z,103185.41
2023-02-13T14:19:47.762Z,103191.75
2023-02-13T14:25:03.090Z,103183.72
2023-02-13T14:30:18.870Z,103188.38
2023-02-13T14:35:33.787Z,103186.34
2023-02-13T14:40:48.722Z,103180.81
2023-02-13T14:46:03.777Z,103185.13
2023-02-13T14:51:18.798Z,103168.91
2023-02-13T14:56:33.747Z,103163.69
2023-02-13T15:01:49.754Z,103156.16
2023-02-13T15:07:05.506Z,103160.13
2023-02-13T15:12:20.756Z,103162.47
2023-02-13T15:17:36.239Z,103167.25
2023-02-13T15:22:51.745Z,103161.22
2023-02-13T15:28:06.762Z,103161.22
2023-02-13T15:33:21.777Z,103160.00
2023-02-13T15:38:36.861Z,103168.34
2023-02-13T15:43:51.769Z,103161.56
2023-02-13T15:49:07.111Z,103154.75
2023-02-13T15:54:22.594Z,103149.19
2023-02-13T15:59:37.713Z,103138.09
2023-02-13T16:04:53.044Z,103143.94
2023-02-13T16:10:08.776Z,103136.84
2023-02-13T16:15:23.777Z,103140.38
2023-02-13T16:20:38.832Z,103144.75
2023-02-13T16:25:54.131Z,103135.59
2023-02-13T16:31:10.240Z,103135.59
2023-02-13T16:36:25.534Z,103137.19
2023-02-13T16:41:40.770Z,103130.03
2023-02-13T16:46:55.815Z,103132.81
2023-02-13T16:52:10.799Z,103130.84
2023-02-13T16:57:25.887Z,103134.81
2023-02-13T17:02:40.840Z,103138.88
2023-02-13T17:07:55.785Z,103140.88
2023-02-13T17:13:10.789Z,103145.31
2023-02-13T17:18:26.129Z,103158.78
2023-02-13T17:23:41.818Z,103153.22
2023-02-13T17:28:56.739Z,103159.22
2023-02-13T17:34:11.794Z,103160.00
2023-02-13T17:39:26.754Z,103148.88
2023-02-13T17:44:42.091Z,103159.53
2023-02-13T17:50:08.496Z,103154.00
2023-02-13T17:55:24.859Z,103154.75
2023-02-13T18:00:39.534Z,103147.94
2023-02-13T18:05:55.748Z,103132.53
2023-02-13T18:11:10.802Z,103139.59
2023-02-13T18:16:25.821Z,103137.59
2023-02-13T18:21:40.508Z,103141.16
2023-02-13T18:26:56.151Z,103146.72
2023-02-13T18:32:12.119Z,103148.72
2023-02-13T18:37:27.836Z,103140.38
2023-02-13T18:42:43.108Z,103151.50
2023-02-13T18:47:58.803Z,103155.06
2023-02-13T18:53:13.768Z,103152.28
2023-02-13T18:58:28.732Z,103141.16
2023-02-13T19:03:43.591Z,103145.16
2023-02-13T19:08:58.781Z,103151.09
2023-02-13T19:14:13.788Z,103141.16
2023-02-13T19:19:28.775Z,103130.03
2023-02-13T19:24:43.763Z,103129.28
2023-02-13T19:29:58.807Z,103124.97
2023-02-13T19:35:13.806Z,103131.28
2023-02-13T19:40:28.752Z,103130.53
2023-02-13T19:45:44.076Z,103128.19
2023-02-13T19:51:00.380Z,103140.53
2023-02-13T19:56:15.553Z,103137.75
2023-02-13T20:01:30.571Z,103130.66
2023-02-13T20:06:46.191Z,103131.91
2023-02-13T20:12:02.144Z,103126.34
2023-02-13T20:17:17.825Z,103137.47
2023-02-13T20:22:32.802Z,103129.53
2023-02-13T20:27:48.146Z,103129.53
2023-02-13T20:33:03.771Z,103133.94
2023-02-13T20:38:18.880Z,103135.41
2023-02-13T20:43:33.587Z,103129.56
2023-02-13T20:48:48.798Z,103129.75
2023-02-13T20:54:04.089Z,103134.69
2023-02-13T20:59:19.592Z,103134.09
2023-02-13T21:04:35.239Z,103143.09
2023-02-13T21:09:50.761Z,103153.28
2023-02-13T21:15:05.822Z,103144.00
2023-02-13T21:20:20.810Z,103140.31
2023-02-13T21:25:35.807Z,103144.19
2023-02-13T21:30:51.147Z,103153.19
2023-02-13T21:36:07.237Z,103145.91
2023-02-13T21:41:23.113Z,103139.44
2023-02-13T21:46:38.841Z,103143.75
2023-02-13T21:52:32.097Z,103143.31
2023-02-13T21:57:47.777Z,103145.59
2023-02-13T22:03:03.231Z,103138.81
2023-02-13T22:08:19.159Z,103137.56
2023-02-13T22:13:35.884Z,103138.66
2023-02-13T22:18:50.772Z,103133.88
2023-02-13T22:24:05.652Z,103127.84
2023-02-13T22:29:20.810Z,103132.94
2023-02-13T22:34:35.810Z,103137.72
2023-02-13T22:39:50.910Z,103130.94
2023-02-13T22:45:05.848Z,103130.94
2023-02-13T22:50:21.067Z,103126.94
2023-02-13T22:55:36.828Z,103112.38
2023-02-13T23:00:51.762Z,103127.72
2023-02-13T23:06:06.808Z,103114.56
2023-02-13T23:11:22.169Z,103117.81
2023-02-13T23:16:37.789Z,103122.16
2023-02-13T23:21:52.765Z,103115.03
2023-02-13T23:27:07.853Z,103111.00
2023-02-13T23:32:23.113Z,103123.81
2023-02-13T23:37:38.764Z,103118.25
2023-02-13T23:42:53.851Z,103117.19
2023-02-13T23:48:08.739Z,103118.25
2023-02-13T23:53:23.860Z,103111.94
2023-02-13T23:58:39.783Z,103118.25
